createdAt,value
2019-05-10T00:00:28.000Z,97278
2019-05-10T00:02:29.000Z,97280
2019-05-10T00:03:51.000Z,97280
2019-05-10T00:05:52.000Z,97277
2019-05-10T00:07:14.000Z,97278
2019-05-10T00:09:15.000Z,97280
2019-05-10T00:10:40.000Z,97283
2019-05-10T00:12:43.000Z,97281
2019-05-10T00:14:06.000Z,97284
2019-05-10T00:16:10.000Z,97290
2019-05-10T00:17:32.000Z,97291
2019-05-10T00:19:35.000Z,97294
2019-05-10T00:20:59.000Z,97296
2019-05-10T00:23:02.000Z,97298
2019-05-10T00:24:24.000Z,97299
2019-05-10T00:26:26.000Z,97298
2019-05-10T00:27:50.000Z,97298
2019-05-10T00:29:51.000Z,97301
2019-05-10T00:31:16.000Z,97301
2019-05-10T00:33:18.000Z,97302
2019-05-10T00:34:41.000Z,97306
2019-05-10T00:36:42.000Z,97306
2019-05-10T00:38:10.000Z,97308
2019-05-10T00:40:15.000Z,97308
2019-05-10T00:41:42.000Z,97307
2019-05-10T00:43:45.000Z,97309
2019-05-10T00:45:09.000Z,97309
2019-05-10T00:47:11.000Z,97315
2019-05-10T00:48:33.000Z,97316
2019-05-10T00:50:36.000Z,97316
2019-05-10T00:52:00.000Z,97319
2019-05-10T00:54:06.000Z,97316
2019-05-10T00:55:36.000Z,97314
2019-05-10T00:57:38.000Z,97314
2019-05-10T00:59:08.000Z,97315
2019-05-10T01:01:09.000Z,97320
2019-05-10T01:02:34.000Z,97321
2019-05-10T01:04:42.000Z,97321
2019-05-10T01:06:06.000Z,97322
2019-05-10T01:08:08.000Z,97325
2019-05-10T01:09:31.000Z,97329
2019-05-10T01:11:36.000Z,97333
2019-05-10T01:13:03.000Z,97331
2019-05-10T01:15:09.000Z,97333
2019-05-10T01:16:33.000Z,97332
2019-05-10T01:18:38.000Z,97330
2019-05-10T01:20:06.000Z,97332
2019-05-10T01:22:10.000Z,97333
2019-05-10T01:23:37.000Z,97334
2019-05-10T01:25:41.000Z,97337
2019-05-10T01:27:08.000Z,97339
2019-05-10T01:29:12.000Z,97342
2019-05-10T01:30:37.000Z,97348
2019-05-10T01:32:43.000Z,97352
2019-05-10T01:34:13.000Z,97354
2019-05-10T01:36:19.000Z,97354
2019-05-10T01:37:44.000Z,97354
2019-05-10T01:39:56.000Z,97357
2019-05-10T01:41:21.000Z,97356
2019-05-10T01:43:26.000Z,97358
2019-05-10T01:44:52.000Z,97358
2019-05-10T01:47:00.000Z,97359
2019-05-10T01:48:26.000Z,97362
2019-05-10T01:50:28.000Z,97362
2019-05-10T01:51:55.000Z,97366
2019-05-10T01:54:00.000Z,97367
2019-05-10T01:55:23.000Z,97371
2019-05-10T01:57:27.000Z,97376
2019-05-10T01:58:52.000Z,97380
2019-05-10T02:01:00.000Z,97379
2019-05-10T02:02:28.000Z,97382
2019-05-10T02:04:34.000Z,97387
2019-05-10T02:06:00.000Z,97385
2019-05-10T02:08:06.000Z,97384
2019-05-10T02:09:30.000Z,97388
2019-05-10T02:11:37.000Z,97389
2019-05-10T02:13:02.000Z,97391
2019-05-10T02:15:09.000Z,97395
2019-05-10T02:16:35.000Z,97398
2019-05-10T02:18:44.000Z,97399
2019-05-10T02:20:08.000Z,97398
2019-05-10T02:22:11.000Z,97399
2019-05-10T02:23:38.000Z,97401
2019-05-10T02:25:43.000Z,97405
2019-05-10T02:27:11.000Z,97403
2019-05-10T02:29:21.000Z,97403
2019-05-10T02:30:54.000Z,97403
2019-05-10T02:32:59.000Z,97403
2019-05-10T02:34:30.000Z,97402
2019-05-10T02:36:39.000Z,97402
2019-05-10T02:38:07.000Z,97401
2019-05-10T02:40:14.000Z,97402
2019-05-10T02:41:44.000Z,97397
2019-05-10T02:43:52.000Z,97394
2019-05-10T02:45:17.000Z,97394
2019-05-10T02:47:27.000Z,97393
2019-05-10T02:48:54.000Z,97397
2019-05-10T02:51:07.000Z,97400
2019-05-10T02:52:34.000Z,97398
2019-05-10T02:54:47.000Z,97399
2019-05-10T02:56:24.000Z,97405
2019-05-10T02:58:43.000Z,97412
2019-05-10T03:00:14.000Z,97416
2019-05-10T03:02:23.000Z,97420
2019-05-10T03:03:54.000Z,97423
2019-05-10T03:06:10.000Z,97423
2019-05-10T03:07:43.000Z,97420
2019-05-10T03:09:56.000Z,97417
2019-05-10T03:11:29.000Z,97415
2019-05-10T03:13:39.000Z,97420
2019-05-10T03:15:12.000Z,97433
2019-05-10T03:17:21.000Z,97441
2019-05-10T03:18:52.000Z,97440
2019-05-10T03:21:02.000Z,97441
2019-05-10T03:22:37.000Z,97439
2019-05-10T03:24:50.000Z,97439
2019-05-10T03:26:23.000Z,97442
2019-05-10T03:28:35.000Z,97445
2019-05-10T03:30:02.000Z,97446
2019-05-10T03:32:14.000Z,97447
2019-05-10T03:33:46.000Z,97449
2019-05-10T03:36:05.000Z,97452
2019-05-10T03:37:35.000Z,97457
2019-05-10T03:39:48.000Z,97460
2019-05-10T03:41:16.000Z,97464
2019-05-10T03:48:38.000Z,97468
2019-05-10T03:50:00.000Z,97470
2019-05-10T03:52:01.000Z,97470
2019-05-10T03:53:23.000Z,97469
2019-05-10T03:55:24.000Z,97468
2019-05-10T03:56:46.000Z,97471
2019-05-10T03:58:47.000Z,97470
2019-05-10T04:00:09.000Z,97473
2019-05-10T04:02:10.000Z,97474
2019-05-10T04:03:32.000Z,97475
2019-05-10T04:05:36.000Z,97474
2019-05-10T04:06:58.000Z,97474
2019-05-10T04:09:00.000Z,97477
2019-05-10T04:10:22.000Z,97476
2019-05-10T04:12:23.000Z,97476
2019-05-10T04:13:45.000Z,97475
2019-05-10T04:15:46.000Z,97477
2019-05-10T04:17:08.000Z,97479
2019-05-10T04:19:11.000Z,97479
2019-05-10T04:20:33.000Z,97478
2019-05-10T04:22:35.000Z,97479
2019-05-10T04:23:58.000Z,97482
2019-05-10T04:26:00.000Z,97484
2019-05-10T04:27:22.000Z,97487
2019-05-10T04:29:34.000Z,97489
2019-05-10T04:30:57.000Z,97491
2019-05-10T04:33:01.000Z,97493
2019-05-10T04:34:27.000Z,97497
2019-05-10T04:36:30.000Z,97498
2019-05-10T04:37:53.000Z,97498
2019-05-10T04:39:55.000Z,97496
2019-05-10T04:41:17.000Z,97499
2019-05-10T04:43:21.000Z,97500
2019-05-10T04:44:46.000Z,97506
2019-05-10T04:46:48.000Z,97506
2019-05-10T04:48:11.000Z,97507
2019-05-10T04:50:14.000Z,97510
2019-05-10T04:51:36.000Z,97512
2019-05-10T04:53:39.000Z,97512
2019-05-10T04:55:03.000Z,97514
2019-05-10T04:57:06.000Z,97512
2019-05-10T04:58:29.000Z,97515
2019-05-10T05:00:31.000Z,97514
2019-05-10T05:01:54.000Z,97515
2019-05-10T05:03:56.000Z,97515
2019-05-10T05:05:21.000Z,97517
2019-05-10T05:07:22.000Z,97520
2019-05-10T05:08:44.000Z,97520
2019-05-10T05:10:47.000Z,97521
2019-05-10T05:12:10.000Z,97525
2019-05-10T05:14:11.000Z,97526
2019-05-10T05:15:34.000Z,97529
2019-05-10T05:17:38.000Z,97530
2019-05-10T05:19:01.000Z,97532
2019-05-10T05:21:03.000Z,97530
2019-05-10T05:22:26.000Z,97532
2019-05-10T05:24:30.000Z,97536
2019-05-10T05:25:53.000Z,97538
2019-05-10T05:27:54.000Z,97543
2019-05-10T05:29:31.000Z,97543
2019-05-10T05:31:32.000Z,97544
2019-05-10T05:32:55.000Z,97544
2019-05-10T05:34:57.000Z,97542
2019-05-10T05:36:20.000Z,97545
2019-05-10T05:38:26.000Z,97547
2019-05-10T05:39:51.000Z,97552
2019-05-10T05:41:53.000Z,97556
2019-05-10T05:43:21.000Z,97557
2019-05-10T05:45:25.000Z,97559
2019-05-10T05:46:56.000Z,97557
2019-05-10T05:49:06.000Z,97558
2019-05-10T05:50:30.000Z,97558
2019-05-10T05:52:36.000Z,97561
2019-05-10T05:53:58.000Z,97557
2019-05-10T05:56:05.000Z,97559
2019-05-10T05:57:38.000Z,97556
2019-05-10T05:59:43.000Z,97557
2019-05-10T06:01:06.000Z,97557
2019-05-10T06:03:10.000Z,97559
2019-05-10T06:04:39.000Z,97557
2019-05-10T06:06:48.000Z,97558
2019-05-10T06:08:12.000Z,97558
2019-05-10T06:10:27.000Z,97558
2019-05-10T06:11:50.000Z,97556
2019-05-10T06:14:00.000Z,97552
2019-05-10T06:15:36.000Z,97551
2019-05-10T06:17:44.000Z,97554
2019-05-10T06:19:07.000Z,97563
2019-05-10T06:21:13.000Z,97571
2019-05-10T06:22:48.000Z,97578
2019-05-10T06:25:10.000Z,97580
2019-05-10T06:26:34.000Z,97579
2019-05-10T06:28:43.000Z,97579
2019-05-10T06:30:23.000Z,97572
2019-05-10T06:32:30.000Z,97572
2019-05-10T06:33:55.000Z,97582
2019-05-10T06:36:00.000Z,97588
2019-05-10T06:37:23.000Z,97588
2019-05-10T06:39:27.000Z,97588
2019-05-10T06:40:54.000Z,97589
2019-05-10T06:42:57.000Z,97591
2019-05-10T06:44:30.000Z,97600
2019-05-10T06:46:38.000Z,97607
2019-05-10T06:48:11.000Z,97607
2019-05-10T06:50:16.000Z,97606
2019-05-10T06:51:41.000Z,97608
2019-05-10T06:53:50.000Z,97610
2019-05-10T06:55:20.000Z,97607
2019-05-10T06:57:24.000Z,97605
2019-05-10T06:58:51.000Z,97607
2019-05-10T07:00:58.000Z,97607
2019-05-10T07:02:26.000Z,97606
2019-05-10T07:04:41.000Z,97610
2019-05-10T07:06:05.000Z,97614
2019-05-10T07:08:16.000Z,97611
2019-05-10T07:09:47.000Z,97610
2019-05-10T07:12:13.000Z,97614
2019-05-10T07:13:39.000Z,97616
2019-05-10T07:15:51.000Z,97616
2019-05-10T07:17:19.000Z,97619
2019-05-10T07:19:27.000Z,97622
2019-05-10T07:20:54.000Z,97623
2019-05-10T07:22:58.000Z,97626
2019-05-10T07:24:30.000Z,97626
2019-05-10T07:26:39.000Z,97627
2019-05-10T07:28:08.000Z,97628
2019-05-10T07:30:25.000Z,97629
2019-05-10T07:31:52.000Z,97630
2019-05-10T07:34:01.000Z,97631
2019-05-10T07:35:35.000Z,97630
2019-05-10T07:37:52.000Z,97628
2019-05-10T07:39:19.000Z,97627
2019-05-10T07:41:25.000Z,97628
2019-05-10T07:42:57.000Z,97634
2019-05-10T07:45:08.000Z,97637
2019-05-10T07:46:40.000Z,97641
2019-05-10T07:48:59.000Z,97642
2019-05-10T07:50:28.000Z,97647
2019-05-10T07:52:37.000Z,97647
2019-05-10T07:54:12.000Z,97651
2019-05-10T07:56:28.000Z,97652
2019-05-10T07:57:54.000Z,97651
2019-05-10T08:00:16.000Z,97653
2019-05-10T08:01:47.000Z,97652
2019-05-10T08:03:58.000Z,97656
2019-05-10T08:05:29.000Z,97658
2019-05-10T08:07:44.000Z,97663
2019-05-10T08:09:11.000Z,97668
2019-05-10T08:11:28.000Z,97667
2019-05-10T08:13:02.000Z,97670
2019-05-10T08:15:15.000Z,97669
2019-05-10T08:16:41.000Z,97671
2019-05-10T08:18:52.000Z,97672
2019-05-10T08:20:30.000Z,97677
2019-05-10T08:23:01.000Z,97678
2019-05-10T08:24:35.000Z,97681
2019-05-10T08:26:47.000Z,97684
2019-05-10T08:28:17.000Z,97684
2019-05-10T08:30:23.000Z,97685
2019-05-10T08:31:56.000Z,97688
2019-05-10T08:34:06.000Z,97690
2019-05-10T08:35:36.000Z,97691
2019-05-10T08:37:51.000Z,97692
2019-05-10T08:39:21.000Z,97695
2019-05-10T08:46:43.000Z,97701
2019-05-10T08:48:06.000Z,97702
2019-05-10T08:50:13.000Z,97703
2019-05-10T08:52:06.000Z,97706
2019-05-10T08:54:07.000Z,97708
2019-05-10T08:55:29.000Z,97710
2019-05-10T08:57:32.000Z,97710
2019-05-10T08:59:05.000Z,97711
2019-05-10T09:01:15.000Z,97710
2019-05-10T09:02:49.000Z,97714
2019-05-10T09:04:53.000Z,97717
2019-05-10T09:06:15.000Z,97721
2019-05-10T09:08:18.000Z,97722
2019-05-10T09:09:43.000Z,97722
2019-05-10T09:11:52.000Z,97723
2019-05-10T09:13:24.000Z,97723
2019-05-10T09:15:34.000Z,97723
2019-05-10T09:16:56.000Z,97728
2019-05-10T09:19:04.000Z,97732
2019-05-10T09:20:27.000Z,97734
2019-05-10T09:22:30.000Z,97733
2019-05-10T09:24:02.000Z,97729
2019-05-10T09:26:07.000Z,97733
2019-05-10T09:27:38.000Z,97730
2019-05-10T09:29:38.000Z,97728
2019-05-10T09:31:01.000Z,97731
2019-05-10T09:33:23.000Z,97736
2019-05-10T09:34:46.000Z,97736
2019-05-10T09:36:48.000Z,97738
2019-05-10T09:38:12.000Z,97734
2019-05-10T09:40:13.000Z,97736
2019-05-10T09:41:36.000Z,97737
2019-05-10T09:43:41.000Z,97735
2019-05-10T09:45:13.000Z,97733
2019-05-10T09:47:15.000Z,97733
2019-05-10T09:48:37.000Z,97734
2019-05-10T09:50:38.000Z,97732
2019-05-10T09:52:08.000Z,97735
2019-05-10T09:54:15.000Z,97735
2019-05-10T09:55:37.000Z,97733
2019-05-10T09:57:39.000Z,97737
2019-05-10T09:59:02.000Z,97737
2019-05-10T10:01:06.000Z,97739
2019-05-10T10:02:40.000Z,97740
2019-05-10T10:04:43.000Z,97734
2019-05-10T10:06:07.000Z,97734
2019-05-10T10:08:12.000Z,97737
2019-05-10T10:09:35.000Z,97738
2019-05-10T10:11:45.000Z,97740
2019-05-10T10:13:23.000Z,97740
2019-05-10T10:15:41.000Z,97741
2019-05-10T10:17:06.000Z,97740
2019-05-10T10:19:10.000Z,97740
2019-05-10T10:20:34.000Z,97742
2019-05-10T10:22:43.000Z,97743
2019-05-10T10:24:15.000Z,97737
2019-05-10T10:26:21.000Z,97736
2019-05-10T10:27:44.000Z,97738
2019-05-10T10:29:47.000Z,97734
2019-05-10T10:31:12.000Z,97736
2019-05-10T10:33:33.000Z,97737
2019-05-10T10:34:56.000Z,97736
2019-05-10T10:37:03.000Z,97739
2019-05-10T10:38:26.000Z,97735
2019-05-10T10:40:37.000Z,97739
2019-05-10T10:42:09.000Z,97737
2019-05-10T10:44:14.000Z,97740
2019-05-10T10:45:41.000Z,97741
2019-05-10T10:47:45.000Z,97741
2019-05-10T10:49:10.000Z,97740
2019-05-10T10:51:17.000Z,97737
2019-05-10T10:52:42.000Z,97742
2019-05-10T10:54:46.000Z,97741
2019-05-10T10:56:12.000Z,97739
2019-05-10T10:58:14.000Z,97743
2019-05-10T10:59:37.000Z,97745
2019-05-10T11:01:44.000Z,97746
2019-05-10T11:03:21.000Z,97747
2019-05-10T11:05:33.000Z,97751
2019-05-10T11:07:00.000Z,97752
2019-05-10T11:09:18.000Z,97756
2019-05-10T11:10:46.000Z,97758
2019-05-10T11:12:49.000Z,97759
2019-05-10T11:14:14.000Z,97757
2019-05-10T11:16:20.000Z,97760
2019-05-10T11:17:46.000Z,97760
2019-05-10T11:19:47.000Z,97757
2019-05-10T11:21:13.000Z,97754
2019-05-10T11:23:14.000Z,97753
2019-05-10T11:24:41.000Z,97754
2019-05-10T11:26:48.000Z,97756
2019-05-10T11:28:13.000Z,97756
2019-05-10T11:30:24.000Z,97761
2019-05-10T11:31:50.000Z,97758
2019-05-10T11:34:22.000Z,97760
2019-05-10T11:35:47.000Z,97763
2019-05-10T11:37:51.000Z,97762
2019-05-10T11:39:17.000Z,97760
2019-05-10T11:41:30.000Z,97761
2019-05-10T11:42:58.000Z,97760
2019-05-10T11:45:07.000Z,97760
2019-05-10T11:46:33.000Z,97758
2019-05-10T11:48:39.000Z,97756
2019-05-10T11:50:11.000Z,97759
2019-05-10T11:52:35.000Z,97753
2019-05-10T11:54:04.000Z,97755
2019-05-10T11:56:10.000Z,97760
2019-05-10T11:59:55.000Z,97756
2019-05-10T12:01:21.000Z,97757
2019-05-10T12:03:28.000Z,97757
2019-05-10T12:04:58.000Z,97761
2019-05-10T12:07:17.000Z,97765
2019-05-10T12:08:58.000Z,97764
2019-05-10T12:11:11.000Z,97761
2019-05-10T12:12:59.000Z,97766
2019-05-10T12:15:24.000Z,97766
2019-05-10T12:16:50.000Z,97762
2019-05-10T12:19:06.000Z,97758
2019-05-10T12:22:39.000Z,97766
2019-05-10T12:25:00.000Z,97765
2019-05-10T12:26:57.000Z,97764
2019-05-10T12:29:37.000Z,97764
2019-05-10T12:31:03.000Z,97761
2019-05-10T12:33:18.000Z,97759
2019-05-10T12:35:03.000Z,97758
2019-05-10T12:37:11.000Z,97754
2019-05-10T12:38:41.000Z,97752
2019-05-10T12:40:48.000Z,97756
2019-05-10T12:42:18.000Z,97752
2019-05-10T12:44:29.000Z,97752
2019-05-10T12:46:00.000Z,97752
2019-05-10T12:48:09.000Z,97750
2019-05-10T12:49:40.000Z,97755
2019-05-10T12:53:24.000Z,97756
2019-05-10T12:59:10.000Z,97759
2019-05-10T13:00:32.000Z,97761
2019-05-10T13:02:33.000Z,97766
2019-05-10T13:03:55.000Z,97767
2019-05-10T13:05:57.000Z,97764
2019-05-10T13:07:19.000Z,97762
2019-05-10T13:09:25.000Z,97765
2019-05-10T13:11:03.000Z,97765
2019-05-10T13:13:05.000Z,97771
2019-05-10T13:14:26.000Z,97769
2019-05-10T13:16:30.000Z,97773
2019-05-10T13:17:54.000Z,97776
2019-05-10T13:19:55.000Z,97775
2019-05-10T13:21:21.000Z,97771
2019-05-10T13:23:24.000Z,97770
2019-05-10T13:24:47.000Z,97769
2019-05-10T13:26:49.000Z,97772
2019-05-10T13:28:14.000Z,97774
2019-05-10T13:30:16.000Z,97775
2019-05-10T13:31:38.000Z,97778
2019-05-10T13:33:45.000Z,97781
2019-05-10T13:35:07.000Z,97783
2019-05-10T13:37:08.000Z,97779
2019-05-10T13:38:43.000Z,97782
2019-05-10T13:40:51.000Z,97782
2019-05-10T13:42:13.000Z,97785
2019-05-10T13:44:15.000Z,97786
2019-05-10T13:45:38.000Z,97785
2019-05-10T13:47:40.000Z,97784
2019-05-10T13:49:02.000Z,97785
2019-05-10T13:51:03.000Z,97782
2019-05-10T13:52:25.000Z,97782
2019-05-10T13:54:40.000Z,97779
2019-05-10T13:56:02.000Z,97779
2019-05-10T13:58:03.000Z,97779
2019-05-10T13:59:26.000Z,97781
2019-05-10T14:01:28.000Z,97782
2019-05-10T14:02:51.000Z,97783
2019-05-10T14:04:53.000Z,97786
2019-05-10T14:06:15.000Z,97787
2019-05-10T14:08:17.000Z,97789
2019-05-10T14:09:40.000Z,97794
2019-05-10T14:11:43.000Z,97797
2019-05-10T14:13:09.000Z,97795
2019-05-10T14:15:12.000Z,97795
2019-05-10T14:16:36.000Z,97794
2019-05-10T14:18:38.000Z,97794
2019-05-10T14:20:00.000Z,97794
2019-05-10T14:22:01.000Z,97798
2019-05-10T14:23:24.000Z,97797
2019-05-10T14:25:35.000Z,97795
2019-05-10T14:27:00.000Z,97792
2019-05-10T14:29:02.000Z,97792
2019-05-10T14:30:25.000Z,97786
2019-05-10T14:32:26.000Z,97781
2019-05-10T14:33:49.000Z,97782
2019-05-10T14:36:20.000Z,97781
2019-05-10T14:37:44.000Z,97781
2019-05-10T14:39:50.000Z,97786
2019-05-10T14:41:15.000Z,97784
2019-05-10T14:43:16.000Z,97793
2019-05-10T14:44:39.000Z,97795
2019-05-10T14:46:40.000Z,97793
2019-05-10T14:48:03.000Z,97792
2019-05-10T14:50:08.000Z,97795
2019-05-10T14:51:31.000Z,97796
2019-05-10T14:53:59.000Z,97793
2019-05-10T14:55:32.000Z,97793
2019-05-10T14:57:41.000Z,97793
2019-05-10T14:59:03.000Z,97796
2019-05-10T15:01:10.000Z,97797
2019-05-10T15:02:34.000Z,97804
2019-05-10T15:04:40.000Z,97802
2019-05-10T15:06:15.000Z,97807
2019-05-10T15:08:20.000Z,97806
2019-05-10T15:09:47.000Z,97804
2019-05-10T15:11:48.000Z,97802
2019-05-10T15:13:11.000Z,97806
2019-05-10T15:15:12.000Z,97812
2019-05-10T15:16:38.000Z,97817
2019-05-10T15:18:40.000Z,97820
2019-05-10T15:20:04.000Z,97820
2019-05-10T15:22:09.000Z,97815
2019-05-10T15:23:32.000Z,97817
2019-05-10T15:25:34.000Z,97814
2019-05-10T15:26:58.000Z,97809
2019-05-10T15:29:03.000Z,97809
2019-05-10T15:30:29.000Z,97811
2019-05-10T15:32:34.000Z,97807
2019-05-10T15:33:59.000Z,97811
2019-05-10T15:36:08.000Z,97805
2019-05-10T15:37:35.000Z,97806
2019-05-10T15:39:49.000Z,97810
2019-05-10T15:41:14.000Z,97812
2019-05-10T15:43:27.000Z,97812
2019-05-10T15:44:55.000Z,97814
2019-05-10T15:46:58.000Z,97812
2019-05-10T15:48:25.000Z,97815
2019-05-10T15:50:35.000Z,97817
2019-05-10T15:54:03.000Z,97818
2019-05-10T15:56:14.000Z,97820
2019-05-10T15:57:43.000Z,97817
2019-05-10T15:59:53.000Z,97819
2019-05-10T16:01:22.000Z,97821
2019-05-10T16:03:47.000Z,97823
2019-05-10T16:05:10.000Z,97824
2019-05-10T16:07:39.000Z,97825
2019-05-10T16:09:19.000Z,97825
2019-05-10T16:19:21.000Z,97827
2019-05-10T16:21:27.000Z,97828
2019-05-10T16:22:01.000Z,97829
2019-05-10T16:23:23.000Z,97829
2019-05-10T16:25:24.000Z,97831
2019-05-10T16:26:46.000Z,97830
2019-05-10T16:28:46.000Z,97833
2019-05-10T16:30:08.000Z,97836
2019-05-10T16:32:17.000Z,97835
2019-05-10T16:33:39.000Z,97833
2019-05-10T16:35:40.000Z,97835
2019-05-10T16:37:10.000Z,97832
2019-05-10T16:39:11.000Z,97831
2019-05-10T16:40:33.000Z,97829
2019-05-10T16:42:34.000Z,97830
2019-05-10T16:43:57.000Z,97826
2019-05-10T16:46:01.000Z,97826
2019-05-10T16:47:24.000Z,97830
2019-05-10T16:49:25.000Z,97831
2019-05-10T16:50:47.000Z,97831
2019-05-10T16:52:48.000Z,97837
2019-05-10T16:54:11.000Z,97835
2019-05-10T16:56:14.000Z,97836
2019-05-10T16:57:42.000Z,97836
2019-05-10T16:59:43.000Z,97836
2019-05-10T17:01:05.000Z,97835
2019-05-10T17:03:08.000Z,97834
2019-05-10T17:04:39.000Z,97833
2019-05-10T17:06:41.000Z,97830
2019-05-10T17:08:04.000Z,97827
2019-05-10T17:10:05.000Z,97826
2019-05-10T17:11:27.000Z,97827
2019-05-10T17:13:30.000Z,97827
2019-05-10T17:14:54.000Z,97831
2019-05-10T17:17:00.000Z,97833
2019-05-10T17:18:24.000Z,97833
2019-05-10T17:20:26.000Z,97830
2019-05-10T17:21:48.000Z,97827
2019-05-10T17:23:50.000Z,97825
2019-05-10T17:25:12.000Z,97826
2019-05-10T17:27:13.000Z,97827
2019-05-10T17:28:36.000Z,97829
2019-05-10T17:30:39.000Z,97834
2019-05-10T17:32:03.000Z,97837
2019-05-10T17:34:06.000Z,97837
2019-05-10T17:35:28.000Z,97837
2019-05-10T17:37:29.000Z,97842
2019-05-10T17:38:58.000Z,97848
2019-05-10T17:41:01.000Z,97851
2019-05-10T17:42:23.000Z,97850
2019-05-10T17:44:26.000Z,97850
2019-05-10T17:45:48.000Z,97849
2019-05-10T17:47:49.000Z,97850
2019-05-10T17:49:14.000Z,97846
2019-05-10T17:52:53.000Z,97846
2019-05-10T17:53:26.000Z,97846
2019-05-10T17:54:52.000Z,97848
2019-05-10T17:56:59.000Z,97851
2019-05-10T17:58:23.000Z,97853
2019-05-10T18:00:35.000Z,97847
2019-05-10T18:01:58.000Z,97842
2019-05-10T18:04:00.000Z,97842
2019-05-10T18:05:24.000Z,97844
2019-05-10T18:07:27.000Z,97843
2019-05-10T18:08:50.000Z,97843
2019-05-10T18:10:53.000Z,97846
2019-05-10T18:12:28.000Z,97847
2019-05-10T18:14:31.000Z,97840
2019-05-10T18:15:58.000Z,97833
2019-05-10T18:18:03.000Z,97832
2019-05-10T18:19:27.000Z,97833
2019-05-10T18:21:28.000Z,97833
2019-05-10T18:22:54.000Z,97833
2019-05-10T18:24:58.000Z,97834
2019-05-10T18:26:20.000Z,97831
2019-05-10T18:28:28.000Z,97831
2019-05-10T18:29:52.000Z,97830
2019-05-10T18:31:56.000Z,97830
2019-05-10T18:33:22.000Z,97828
2019-05-10T18:36:59.000Z,97828
2019-05-10T18:37:49.000Z,97825
2019-05-10T18:39:21.000Z,97821
2019-05-10T18:41:26.000Z,97824
2019-05-10T18:42:59.000Z,97824
2019-05-10T18:45:11.000Z,97828
2019-05-10T18:46:38.000Z,97832
2019-05-10T18:48:40.000Z,97833
2019-05-10T18:50:04.000Z,97832
2019-05-10T18:52:10.000Z,97835
2019-05-10T18:53:39.000Z,97839
2019-05-10T18:55:49.000Z,97842
2019-05-10T18:57:16.000Z,97846
2019-05-10T18:59:28.000Z,97845
2019-05-10T19:00:56.000Z,97842
2019-05-10T19:03:06.000Z,97840
2019-05-10T19:04:29.000Z,97841
2019-05-10T19:06:35.000Z,97844
2019-05-10T19:08:06.000Z,97848
2019-05-10T19:10:09.000Z,97850
2019-05-10T19:11:33.000Z,97851
2019-05-10T19:13:46.000Z,97860
2019-05-10T19:15:20.000Z,97865
2019-05-10T19:17:25.000Z,97869
2019-05-10T19:18:53.000Z,97879
2019-05-10T19:21:07.000Z,97896
2019-05-10T19:22:33.000Z,97902
2019-05-10T19:24:38.000Z,97902
2019-05-10T19:26:04.000Z,97899
2019-05-10T19:28:10.000Z,97901
2019-05-10T19:29:35.000Z,97907
2019-05-10T19:31:54.000Z,97906
2019-05-10T19:33:24.000Z,97905
2019-05-10T19:35:42.000Z,97909
2019-05-10T19:37:12.000Z,97914
2019-05-10T19:39:36.000Z,97912
2019-05-10T19:41:03.000Z,97911
2019-05-10T19:43:08.000Z,97911
2019-05-10T19:44:38.000Z,97911
2019-05-10T19:46:51.000Z,97908
2019-05-10T19:48:16.000Z,97906
2019-05-10T19:51:57.000Z,97910
2019-05-10T19:54:04.000Z,97910
2019-05-10T19:55:34.000Z,97911
2019-05-10T19:57:38.000Z,97913
2019-05-10T19:59:08.000Z,97911
2019-05-10T20:01:24.000Z,97907
2019-05-10T20:02:58.000Z,97908
2019-05-10T20:05:03.000Z,97910
2019-05-10T20:06:30.000Z,97907
2019-05-10T20:08:43.000Z,97906
2019-05-10T20:10:13.000Z,97907
2019-05-10T20:12:22.000Z,97911
2019-05-10T20:13:50.000Z,97912
2019-05-10T20:15:56.000Z,97914
2019-05-10T20:17:24.000Z,97915
2019-05-10T20:19:33.000Z,97919
2019-05-10T20:21:03.000Z,97924
2019-05-10T20:23:08.000Z,97925
2019-05-10T20:24:39.000Z,97923
2019-05-10T20:26:46.000Z,97924
2019-05-10T20:28:18.000Z,97926
2019-05-10T20:30:27.000Z,97930
2019-05-10T20:31:58.000Z,97937
2019-05-10T20:34:08.000Z,97938
2019-05-10T20:35:38.000Z,97936
2019-05-10T20:39:22.000Z,97941
2019-05-10T20:40:11.000Z,97941
2019-05-10T20:41:36.000Z,97941
2019-05-10T20:43:48.000Z,97944
2019-05-10T20:45:20.000Z,97942
2019-05-10T20:47:34.000Z,97944
2019-05-10T20:49:07.000Z,97949
2019-05-10T20:51:24.000Z,97952
2019-05-10T20:52:53.000Z,97947
2019-05-10T20:55:03.000Z,97946
2019-05-10T20:56:35.000Z,97936
2019-05-10T20:58:53.000Z,97925
2019-05-10T21:00:22.000Z,97933
2019-05-10T21:07:50.000Z,97958
2019-05-10T21:09:12.000Z,97965
2019-05-10T21:11:14.000Z,97968
2019-05-10T21:12:36.000Z,97968
2019-05-10T21:14:37.000Z,97966
2019-05-10T21:16:00.000Z,97959
2019-05-10T21:18:01.000Z,97956
2019-05-10T21:19:23.000Z,97957
2019-05-10T21:21:26.000Z,97958
2019-05-10T21:22:49.000Z,97952
2019-05-10T21:24:50.000Z,97948
2019-05-10T21:26:12.000Z,97946
2019-05-10T21:28:13.000Z,97944
2019-05-10T21:29:35.000Z,97943
2019-05-10T21:31:36.000Z,97941
2019-05-10T21:32:58.000Z,97936
2019-05-10T21:34:58.000Z,97938
2019-05-10T21:36:21.000Z,97943
2019-05-10T21:38:22.000Z,97948
2019-05-10T21:39:55.000Z,97956
2019-05-10T21:41:57.000Z,97952
2019-05-10T21:43:19.000Z,97948
2019-05-10T21:45:20.000Z,97945
2019-05-10T21:46:43.000Z,97945
2019-05-10T21:48:44.000Z,97946
2019-05-10T21:50:06.000Z,97946
2019-05-10T21:52:07.000Z,97943
2019-05-10T21:53:29.000Z,97943
2019-05-10T21:55:31.000Z,97945
2019-05-10T21:56:54.000Z,97944
2019-05-10T21:58:55.000Z,97942
2019-05-10T22:00:18.000Z,97937
2019-05-10T22:02:20.000Z,97937
2019-05-10T22:03:42.000Z,97933
2019-05-10T22:05:44.000Z,97934
2019-05-10T22:07:06.000Z,97934
2019-05-10T22:09:08.000Z,97931
2019-05-10T22:10:30.000Z,97928
2019-05-10T22:12:32.000Z,97924
2019-05-10T22:13:54.000Z,97920
2019-05-10T22:15:56.000Z,97919
2019-05-10T22:17:18.000Z,97917
2019-05-10T22:19:19.000Z,97913
2019-05-10T22:20:42.000Z,97907
2019-05-10T22:22:44.000Z,97903
2019-05-10T22:24:07.000Z,97900
2019-05-10T22:26:09.000Z,97896
2019-05-10T22:27:33.000Z,97893
2019-05-10T22:29:35.000Z,97891
2019-05-10T22:31:00.000Z,97893
2019-05-10T22:33:01.000Z,97891
2019-05-10T22:34:24.000Z,97887
2019-05-10T22:36:26.000Z,97887
2019-05-10T22:37:48.000Z,97888
2019-05-10T22:39:52.000Z,97890
2019-05-10T22:41:15.000Z,97889
2019-05-10T22:43:20.000Z,97888
2019-05-10T22:50:41.000Z,97876
2019-05-10T22:52:03.000Z,97873
2019-05-10T22:54:04.000Z,97869
2019-05-10T22:55:27.000Z,97867
2019-05-10T22:57:28.000Z,97864
2019-05-10T22:58:50.000Z,97863
2019-05-10T23:00:51.000Z,97861
2019-05-10T23:02:13.000Z,97863
2019-05-10T23:04:14.000Z,97865
2019-05-10T23:05:36.000Z,97867
2019-05-10T23:07:37.000Z,97872
2019-05-10T23:08:59.000Z,97878
2019-05-10T23:11:00.000Z,97881
2019-05-10T23:12:22.000Z,97883
2019-05-10T23:14:23.000Z,97882
2019-05-10T23:15:45.000Z,97876
2019-05-10T23:17:48.000Z,97871
2019-05-10T23:19:10.000Z,97872
2019-05-10T23:21:11.000Z,97874
2019-05-10T23:22:34.000Z,97876
2019-05-10T23:24:35.000Z,97874
2019-05-10T23:25:57.000Z,97871
2019-05-10T23:27:58.000Z,97869
2019-05-10T23:29:20.000Z,97867
2019-05-10T23:31:22.000Z,97867
2019-05-10T23:32:44.000Z,97869
2019-05-10T23:34:45.000Z,97868